sensor_id;sensor_type;location;lat;lon;timestamp;pressure;altitude;pressure_sealevel;temperature;humidity
39301;BME280;25019;42.626;23.380;2023-06-22T00:01:56;94870.09;;;17.71;99.02
39301;BME280;25019;42.626;23.380;2023-06-22T00:04:22;94857.53;;;17.66;99.57
39301;BME280;25019;42.626;23.380;2023-06-22T00:06:47;94858.38;;;17.62;99.91
39301;BME280;25019;42.626;23.380;2023-06-22T00:09:13;94857.38;;;17.52;100.00
39301;BME280;25019;42.626;23.380;2023-06-22T00:11:39;94856.59;;;17.47;100.00
39301;BME280;25019;42.626;23.380;2023-06-22T00:14:04;94856.66;;;17.42;100.00
39301;BME280;25019;42.626;23.380;2023-06-22T00:16:33;94856.97;;;17.35;100.00
39301;BME280;25019;42.626;23.380;2023-06-22T00:18:59;94846.25;;;17.30;100.00
39301;BME280;25019;42.626;23.380;2023-06-22T00:21:29;94858.94;;;17.19;100.00
39301;BME280;25019;42.626;23.380;2023-06-22T00:23:55;94850.63;;;17.20;100.00
39301;BME280;25019;42.626;23.380;2023-06-22T00:26:22;94847.44;;;17.13;100.00
39301;BME280;25019;42.626;23.380;2023-06-22T00:28:48;94833.31;;;17.02;100.00
39301;BME280;25019;42.626;23.380;2023-06-22T00:31:14;94843.75;;;17.04;100.00
39301;BME280;25019;42.626;23.380;2023-06-22T00:33:40;94828.19;;;17.01;100.00
39301;BME280;25019;42.626;23.380;2023-06-22T00:36:06;94824.22;;;16.98;100.00
39301;BME280;25019;42.626;23.380;2023-06-22T00:38:33;94830.66;;;16.97;100.00
39301;BME280;25019;42.626;23.380;2023-06-22T00:41:00;94811.13;;;16.81;100.00
39301;BME280;25019;42.626;23.380;2023-06-22T00:43:26;94830.66;;;16.92;100.00
39301;BME280;25019;42.626;23.380;2023-06-22T00:45:52;94826.41;;;16.86;100.00
39301;BME280;25019;42.626;23.380;2023-06-22T00:48:18;94829.34;;;16.84;100.00
39301;BME280;25019;42.626;23.380;2023-06-22T00:50:43;94758.53;;;16.40;100.00
39301;BME280;25019;42.626;23.380;2023-06-22T00:53:09;94726.47;;;16.20;100.00
39301;BME280;25019;42.626;23.380;2023-06-22T00:55:37;94841.94;;;16.89;100.00
39301;BME280;25019;42.626;23.380;2023-06-22T00:58:07;94795.66;;;16.68;100.00
39301;BME280;25019;42.626;23.380;2023-06-22T01:00:36;94832.53;;;16.91;100.00
39301;BME280;25019;42.626;23.380;2023-06-22T01:03:03;94753.69;;;16.42;100.00
39301;BME280;25019;42.626;23.380;2023-06-22T01:05:31;94819.69;;;16.83;100.00
39301;BME280;25019;42.626;23.380;2023-06-22T01:08:31;94824.84;;;16.80;100.00
39301;BME280;25019;42.626;23.380;2023-06-22T01:11:16;94834.72;;;16.84;100.00
39301;BME280;25019;42.626;23.380;2023-06-22T01:16:35;94832.28;;;16.88;100.00
39301;BME280;25019;42.626;23.380;2023-06-22T01:21:51;94839.25;;;16.89;100.00
39301;BME280;25019;42.626;23.380;2023-06-22T01:29:55;94839.00;;;16.85;100.00
39301;BME280;25019;42.626;23.380;2023-06-22T01:32:33;94849.19;;;16.88;100.00
39301;BME280;25019;42.626;23.380;2023-06-22T01:35:01;94840.09;;;16.79;100.00
39301;BME280;25019;42.626;23.380;2023-06-22T01:37:30;94795.47;;;16.54;100.00
39301;BME280;25019;42.626;23.380;2023-06-22T01:39:58;94796.25;;;16.54;100.00
39301;BME280;25019;42.626;23.380;2023-06-22T01:42:24;94774.59;;;16.45;100.00
39301;BME280;25019;42.626;23.380;2023-06-22T01:44:53;94848.34;;;16.93;100.00
39301;BME280;25019;42.626;23.380;2023-06-22T01:47:20;94845.94;;;16.91;100.00
39301;BME280;25019;42.626;23.380;2023-06-22T01:49:46;94788.78;;;16.46;100.00
39301;BME280;25019;42.626;23.380;2023-06-22T01:52:13;94855.59;;;16.92;100.00
39301;BME280;25019;42.626;23.380;2023-06-22T01:54:39;94836.63;;;16.78;100.00
39301;BME280;25019;42.626;23.380;2023-06-22T01:57:06;94860.69;;;16.94;100.00
39301;BME280;25019;42.626;23.380;2023-06-22T01:59:32;94858.28;;;16.92;100.00
39301;BME280;25019;42.626;23.380;2023-06-22T02:02:08;94857.75;;;16.90;100.00
39301;BME280;25019;42.626;23.380;2023-06-22T02:04:40;94759.19;;;16.16;100.00
39301;BME280;25019;42.626;23.380;2023-06-22T02:07:13;94762.69;;;16.12;100.00
39301;BME280;25019;42.626;23.380;2023-06-22T02:09:43;94847.94;;;16.65;100.00
39301;BME280;25019;42.626;23.380;2023-06-22T02:12:11;94866.13;;;16.78;100.00
39301;BME280;25019;42.626;23.380;2023-06-22T02:14:38;94832.19;;;16.53;100.00
39301;BME280;25019;42.626;23.380;2023-06-22T02:17:04;94875.25;;;16.77;100.00
39301;BME280;25019;42.626;23.380;2023-06-22T02:19:36;94860.78;;;16.78;100.00
39301;BME280;25019;42.626;23.380;2023-06-22T02:22:03;94813.72;;;16.46;100.00
39301;BME280;25019;42.626;23.380;2023-06-22T02:24:29;94860.56;;;16.65;100.00
39301;BME280;25019;42.626;23.380;2023-06-22T02:26:57;94836.53;;;16.44;100.00
39301;BME280;25019;42.626;23.380;2023-06-22T02:29:23;94862.75;;;16.52;100.00
39301;BME280;25019;42.626;23.380;2023-06-22T02:31:49;94799.66;;;16.10;100.00
39301;BME280;25019;42.626;23.380;2023-06-22T02:34:14;94781.22;;;15.98;100.00
39301;BME280;25019;42.626;23.380;2023-06-22T02:36:49;94858.47;;;16.56;100.00
39301;BME280;25019;42.626;23.380;2023-06-22T02:39:22;94783.31;;;16.11;100.00
39301;BME280;25019;42.626;23.380;2023-06-22T02:41:53;94854.16;;;16.55;100.00
39301;BME280;25019;42.626;23.380;2023-06-22T02:44:19;94764.09;;;15.99;100.00
39301;BME280;25019;42.626;23.380;2023-06-22T02:46:47;94858.69;;;16.60;100.00
39301;BME280;25019;42.626;23.380;2023-06-22T02:49:14;94854.41;;;16.59;100.00
39301;BME280;25019;42.626;23.380;2023-06-22T02:51:44;94805.78;;;16.26;100.00
39301;BME280;25019;42.626;23.380;2023-06-22T02:54:11;94867.00;;;16.63;100.00
39301;BME280;25019;42.626;23.380;2023-06-22T02:56:37;94860.59;;;16.54;100.00
39301;BME280;25019;42.626;23.380;2023-06-22T02:59:03;94778.78;;;16.01;100.00
39301;BME280;25019;42.626;23.380;2023-06-22T03:01:35;94867.56;;;16.60;100.00
39301;BME280;25019;42.626;23.380;2023-06-22T03:04:08;94865.94;;;16.65;100.00
39301;BME280;25019;42.626;23.380;2023-06-22T03:06:34;94823.94;;;16.34;100.00
39301;BME280;25019;42.626;23.380;2023-06-22T03:09:03;94856.84;;;16.60;100.00
39301;BME280;25019;42.626;23.380;2023-06-22T03:11:30;94862.72;;;16.68;100.00
39301;BME280;25019;42.626;23.380;2023-06-22T03:13:58;94862.72;;;16.68;100.00
39301;BME280;25019;42.626;23.380;2023-06-22T03:16:23;94877.19;;;16.72;100.00
39301;BME280;25019;42.626;23.380;2023-06-22T03:18:49;94820.75;;;16.32;100.00
39301;BME280;25019;42.626;23.380;2023-06-22T03:21:15;94889.25;;;16.64;100.00
39301;BME280;25019;42.626;23.380;2023-06-22T03:23:42;94878.81;;;16.57;100.00
39301;BME280;25019;42.626;23.380;2023-06-22T03:26:09;94891.66;;;16.71;100.00
39301;BME280;25019;42.626;23.380;2023-06-22T03:28:35;94896.44;;;16.79;100.00
39301;BME280;25019;42.626;23.380;2023-06-22T03:31:00;94893.72;;;16.89;100.00
39301;BME280;25019;42.626;23.380;2023-06-22T03:33:28;94896.63;;;16.98;100.00
39301;BME280;25019;42.626;23.380;2023-06-22T03:35:57;94898.19;;;17.10;100.00
39301;BME280;25019;42.626;23.380;2023-06-22T03:38:23;94899.69;;;17.26;100.00
39301;BME280;25019;42.626;23.380;2023-06-22T03:40:51;94901.84;;;17.64;100.00
39301;BME280;25019;42.626;23.380;2023-06-22T03:43:18;94895.34;;;18.05;100.00
39301;BME280;25019;42.626;23.380;2023-06-22T03:45:44;94897.13;;;18.44;100.00
39301;BME280;25019;42.626;23.380;2023-06-22T03:48:11;94814.75;;;18.29;100.00
39301;BME280;25019;42.626;23.380;2023-06-22T03:50:37;94892.84;;;19.11;99.51
39301;BME280;25019;42.626;23.380;2023-06-22T03:53:03;94906.00;;;19.51;97.61
39301;BME280;25019;42.626;23.380;2023-06-22T03:55:28;94900.84;;;19.87;96.38
39301;BME280;25019;42.626;23.380;2023-06-22T03:57:54;94901.47;;;20.17;93.18
39301;BME280;25019;42.626;23.380;2023-06-22T04:00:25;94818.19;;;20.02;89.46
39301;BME280;25019;42.626;23.380;2023-06-22T04:02:54;94902.72;;;20.95;86.49
39301;BME280;25019;42.626;23.380;2023-06-22T04:05:19;94911.84;;;21.36;83.86
39301;BME280;25019;42.626;23.380;2023-06-22T04:07:45;94864.41;;;21.44;81.69
39301;BME280;25019;42.626;23.380;2023-06-22T04:10:11;94906.25;;;21.92;79.57
39301;BME280;25019;42.626;23.380;2023-06-22T04:12:36;94870.88;;;21.79;77.88
39301;BME280;25019;42.626;23.380;2023-06-22T04:15:02;94909.91;;;22.19;76.91
39301;BME280;25019;42.626;23.380;2023-06-22T04:17:28;94907.81;;;22.38;77.29
39301;BME280;25019;42.626;23.380;2023-06-22T04:19:53;94900.78;;;22.69;76.46
39301;BME280;25019;42.626;23.380;2023-06-22T04:22:19;94897.69;;;23.02;74.75
39301;BME280;25019;42.626;23.380;2023-06-22T04:24:45;94891.53;;;23.37;73.02
39301;BME280;25019;42.626;23.380;2023-06-22T04:27:10;94892.53;;;23.67;71.26
39301;BME280;25019;42.626;23.380;2023-06-22T04:29:37;94850.25;;;23.66;69.61
39301;BME280;25019;42.626;23.380;2023-06-22T04:32:03;94830.59;;;23.87;68.25
39301;BME280;25019;42.626;23.380;2023-06-22T04:34:31;94883.97;;;24.30;67.70
39301;BME280;25019;42.626;23.380;2023-06-22T04:36:57;94817.19;;;23.99;67.66
39301;BME280;25019;42.626;23.380;2023-06-22T04:39:22;94880.81;;;24.58;67.36
39301;BME280;25019;42.626;23.380;2023-06-22T04:41:49;94869.69;;;24.90;66.56
39301;BME280;25019;42.626;23.380;2023-06-22T04:44:19;94869.56;;;25.07;65.15
39301;BME280;25019;42.626;23.380;2023-06-22T04:46:58;94880.63;;;25.02;65.10
39301;BME280;25019;42.626;23.380;2023-06-22T04:49:30;94863.34;;;25.07;64.89
39301;BME280;25019;42.626;23.380;2023-06-22T04:51:59;94869.47;;;25.46;63.97
39301;BME280;25019;42.626;23.380;2023-06-22T04:54:25;94828.84;;;25.50;62.48
39301;BME280;25019;42.626;23.380;2023-06-22T04:56:51;94876.22;;;25.82;61.89
39301;BME280;25019;42.626;23.380;2023-06-22T04:59:28;94877.78;;;26.05;61.27
39301;BME280;25019;42.626;23.380;2023-06-22T05:02:00;94885.00;;;26.34;60.24
39301;BME280;25019;42.626;23.380;2023-06-22T05:04:27;94879.47;;;26.55;59.66
39301;BME280;25019;42.626;23.380;2023-06-22T05:06:57;94838.41;;;26.60;57.75
39301;BME280;25019;42.626;23.380;2023-06-22T05:09:23;94895.94;;;26.71;57.36
39301;BME280;25019;42.626;23.380;2023-06-22T05:11:51;94854.28;;;26.58;57.88
39301;BME280;25019;42.626;23.380;2023-06-22T05:14:17;94891.88;;;27.15;56.65
39301;BME280;25019;42.626;23.380;2023-06-22T05:16:44;94890.88;;;27.60;55.57
39301;BME280;25019;42.626;23.380;2023-06-22T05:19:10;94888.38;;;27.96;53.84
39301;BME280;25019;42.626;23.380;2023-06-22T05:21:36;94879.88;;;28.14;53.48
39301;BME280;25019;42.626;23.380;2023-06-22T05:24:02;94883.44;;;28.46;52.77
39301;BME280;25019;42.626;23.380;2023-06-22T05:26:33;94868.22;;;28.77;51.93
39301;BME280;25019;42.626;23.380;2023-06-22T05:28:59;94889.56;;;29.23;51.12
39301;BME280;25019;42.626;23.380;2023-06-22T05:31:26;94901.09;;;29.49;50.12
39301;BME280;25019;42.626;23.380;2023-06-22T05:33:53;94894.13;;;29.51;49.43
39301;BME280;25019;42.626;23.380;2023-06-22T05:36:19;94843.91;;;29.24;49.70
39301;BME280;25019;42.626;23.380;2023-06-22T05:38:45;94903.06;;;29.68;49.19
39301;BME280;25019;42.626;23.380;2023-06-22T05:41:11;94906.38;;;29.57;48.55
39301;BME280;25019;42.626;23.380;2023-06-22T05:43:37;94909.53;;;29.59;48.97
39301;BME280;25019;42.626;23.380;2023-06-22T05:46:03;94875.25;;;29.30;49.89
39301;BME280;25019;42.626;23.380;2023-06-22T05:48:29;94925.63;;;29.81;49.95
39301;BME280;25019;42.626;23.380;2023-06-22T05:50:55;94926.38;;;29.97;50.15
39301;BME280;25019;42.626;23.380;2023-06-22T05:53:21;94925.13;;;29.95;50.75
39301;BME280;25019;42.626;23.380;2023-06-22T05:55:46;94923.63;;;29.97;50.71
39301;BME280;25019;42.626;23.380;2023-06-22T05:58:12;94888.50;;;29.83;50.03
39301;BME280;25019;42.626;23.380;2023-06-22T06:00:39;94925.81;;;30.31;49.35
39301;BME280;25019;42.626;23.380;2023-06-22T06:03:06;94869.63;;;30.17;47.81
39301;BME280;25019;42.626;23.380;2023-06-22T06:05:33;94919.28;;;30.59;47.75
39301;BME280;25019;42.626;23.380;2023-06-22T06:08:00;94923.88;;;30.74;47.90
39301;BME280;25019;42.626;23.380;2023-06-22T06:10:26;94917.91;;;30.69;48.11
39301;BME280;25019;42.626;23.380;2023-06-22T06:12:53;94918.31;;;30.94;47.30
39301;BME280;25019;42.626;23.380;2023-06-22T06:15:18;94914.97;;;31.04;46.53
39301;BME280;25019;42.626;23.380;2023-06-22T06:17:47;94904.34;;;31.26;45.87
39301;BME280;25019;42.626;23.380;2023-06-22T06:20:13;94901.84;;;31.44;45.38
39301;BME280;25019;42.626;23.380;2023-06-22T06:22:39;94898.44;;;31.54;45.58
39301;BME280;25019;42.626;23.380;2023-06-22T06:25:05;94896.13;;;31.57;46.78
39301;BME280;25019;42.626;23.380;2023-06-22T06:27:31;94900.44;;;31.58;47.04
39301;BME280;25019;42.626;23.380;2023-06-22T06:29:57;94906.09;;;31.42;47.66
39301;BME280;25019;42.626;23.380;2023-06-22T06:32:22;94895.28;;;31.52;47.62
39301;BME280;25019;42.626;23.380;2023-06-22T06:34:48;94897.06;;;31.68;47.59
39301;BME280;25019;42.626;23.380;2023-06-22T06:37:13;94894.47;;;31.79;46.70
39301;BME280;25019;42.626;23.380;2023-06-22T06:39:39;94902.31;;;31.80;46.85
39301;BME280;25019;42.626;23.380;2023-06-22T06:42:05;94907.44;;;31.78;46.15
39301;BME280;25019;42.626;23.380;2023-06-22T06:44:31;94901.94;;;31.78;46.11
39301;BME280;25019;42.626;23.380;2023-06-22T06:46:56;94893.47;;;31.94;45.70
39301;BME280;25019;42.626;23.380;2023-06-22T06:49:22;94884.44;;;31.94;45.21
39301;BME280;25019;42.626;23.380;2023-06-22T06:51:47;94849.59;;;31.67;45.52
39301;BME280;25019;42.626;23.380;2023-06-22T06:54:13;94877.03;;;31.98;45.87
39301;BME280;25019;42.626;23.380;2023-06-22T06:56:39;94871.06;;;31.89;46.08
39301;BME280;25019;42.626;23.380;2023-06-22T06:59:04;94880.34;;;31.80;46.03
39301;BME280;25019;42.626;23.380;2023-06-22T07:01:30;94874.16;;;31.57;46.17
39301;BME280;25019;42.626;23.380;2023-06-22T07:03:59;94877.09;;;31.41;46.25
39301;BME280;25019;42.626;23.380;2023-06-22T07:06:26;94886.00;;;31.07;47.39
39301;BME280;25019;42.626;23.380;2023-06-22T07:08:55;94876.31;;;30.63;47.32
39301;BME280;25019;42.626;23.380;2023-06-22T07:11:21;94882.03;;;30.11;48.62
39301;BME280;25019;42.626;23.380;2023-06-22T07:13:46;94864.63;;;29.60;50.18
39301;BME280;25019;42.626;23.380;2023-06-22T07:16:12;94884.97;;;29.43;51.29
39301;BME280;25019;42.626;23.380;2023-06-22T07:18:39;94873.41;;;28.98;53.03
39301;BME280;25019;42.626;23.380;2023-06-22T07:21:05;94864.00;;;28.64;54.41
39301;BME280;25019;42.626;23.380;2023-06-22T07:23:32;94888.56;;;29.12;54.57
39301;BME280;25019;42.626;23.380;2023-06-22T07:25:59;94887.69;;;29.08;53.77
39301;BME280;25019;42.626;23.380;2023-06-22T07:28:27;94882.94;;;28.89;54.02
39301;BME280;25019;42.626;23.380;2023-06-22T07:30:53;94884.03;;;28.84;53.46
39301;BME280;25019;42.626;23.380;2023-06-22T07:33:19;94893.06;;;28.88;54.17
39301;BME280;25019;42.626;23.380;2023-06-22T07:35:45;94877.25;;;29.13;53.02
39301;BME280;25019;42.626;23.380;2023-06-22T07:38:12;94838.97;;;29.13;54.31
39301;BME280;25019;42.626;23.380;2023-06-22T07:40:40;94866.47;;;29.37;53.67
39301;BME280;25019;42.626;23.380;2023-06-22T07:43:07;94891.88;;;29.57;52.31
39301;BME280;25019;42.626;23.380;2023-06-22T07:45:32;94893.41;;;29.54;52.37
39301;BME280;25019;42.626;23.380;2023-06-22T07:48:01;94889.38;;;29.32;51.06
39301;BME280;25019;42.626;23.380;2023-06-22T07:50:26;94889.00;;;29.50;52.63
39301;BME280;25019;42.626;23.380;2023-06-22T07:52:52;94858.28;;;29.21;53.36
39301;BME280;25019;42.626;23.380;2023-06-22T07:55:18;94895.66;;;29.33;53.10
39301;BME280;25019;42.626;23.380;2023-06-22T07:57:44;94869.88;;;29.50;52.03
39301;BME280;25019;42.626;23.380;2023-06-22T08:00:10;94792.25;;;29.38;51.78
39301;BME280;25019;42.626;23.380;2023-06-22T08:02:43;94841.19;;;29.63;50.28
39301;BME280;25019;42.626;23.380;2023-06-22T08:05:10;94891.34;;;30.07;49.28
39301;BME280;25019;42.626;23.380;2023-06-22T08:07:37;94875.47;;;29.96;50.06
39301;BME280;25019;42.626;23.380;2023-06-22T08:10:09;94886.06;;;29.78;49.34
39301;BME280;25019;42.626;23.380;2023-06-22T08:12:35;94871.66;;;29.62;48.71
39301;BME280;25019;42.626;23.380;2023-06-22T08:15:01;94878.28;;;29.60;48.34
39301;BME280;25019;42.626;23.380;2023-06-22T08:17:26;94885.63;;;29.56;48.71
39301;BME280;25019;42.626;23.380;2023-06-22T08:19:52;94830.94;;;29.21;49.37
39301;BME280;25019;42.626;23.380;2023-06-22T08:22:17;94876.78;;;29.27;49.88
39301;BME280;25019;42.626;23.380;2023-06-22T08:24:44;94870.03;;;28.73;50.24
39301;BME280;25019;42.626;23.380;2023-06-22T08:27:10;94855.78;;;28.64;50.88
39301;BME280;25019;42.626;23.380;2023-06-22T08:29:40;94855.09;;;28.83;50.97
39301;BME280;25019;42.626;23.380;2023-06-22T08:32:10;94858.22;;;29.01;50.57
39301;BME280;25019;42.626;23.380;2023-06-22T08:34:36;94858.19;;;29.17;49.78
39301;BME280;25019;42.626;23.380;2023-06-22T08:37:01;94850.59;;;29.26;50.55
39301;BME280;25019;42.626;23.380;2023-06-22T08:39:32;94833.34;;;29.06;51.24
39301;BME280;25019;42.626;23.380;2023-06-22T08:41:57;94862.50;;;29.18;51.99
39301;BME280;25019;42.626;23.380;2023-06-22T08:44:23;94824.03;;;28.91;51.83
39301;BME280;25019;42.626;23.380;2023-06-22T08:46:48;94807.19;;;28.73;51.10
39301;BME280;25019;42.626;23.380;2023-06-22T08:49:14;94870.13;;;29.09;51.53
39301;BME280;25019;42.626;23.380;2023-06-22T08:51:40;94849.78;;;28.74;51.90
39301;BME280;25019;42.626;23.380;2023-06-22T08:54:06;94871.31;;;28.60;52.20
39301;BME280;25019;42.626;23.380;2023-06-22T08:56:31;94824.19;;;28.02;54.38
39301;BME280;25019;42.626;23.380;2023-06-22T08:58:57;94866.38;;;28.05;54.52
39301;BME280;25019;42.626;23.380;2023-06-22T09:01:23;94802.63;;;27.40;54.23
39301;BME280;25019;42.626;23.380;2023-06-22T09:03:48;94851.59;;;27.77;54.79
39301;BME280;25019;42.626;23.380;2023-06-22T09:06:22;94842.81;;;27.56;55.88
39301;BME280;25019;42.626;23.380;2023-06-22T09:08:48;94788.19;;;27.11;55.89
39301;BME280;25019;42.626;23.380;2023-06-22T09:11:14;94836.28;;;27.32;60.44
39301;BME280;25019;42.626;23.380;2023-06-22T09:13:40;94847.41;;;27.39;58.70
39301;BME280;25019;42.626;23.380;2023-06-22T09:16:05;94836.28;;;27.32;58.96
39301;BME280;25019;42.626;23.380;2023-06-22T09:18:33;94837.63;;;27.38;60.32
39301;BME280;25019;42.626;23.380;2023-06-22T09:20:59;94836.38;;;27.35;59.39
39301;BME280;25019;42.626;23.380;2023-06-22T09:23:24;94839.56;;;27.37;58.91
39301;BME280;25019;42.626;23.380;2023-06-22T09:25:50;94763.81;;;26.77;57.48
39301;BME280;25019;42.626;23.380;2023-06-22T09:28:16;94832.00;;;27.18;55.70
39301;BME280;25019;42.626;23.380;2023-06-22T09:30:44;94847.88;;;27.29;55.08
39301;BME280;25019;42.626;23.380;2023-06-22T09:33:10;94846.28;;;27.28;55.28
39301;BME280;25019;42.626;23.380;2023-06-22T09:35:36;94850.69;;;27.32;55.29
39301;BME280;25019;42.626;23.380;2023-06-22T09:38:02;94822.59;;;27.16;56.27
39301;BME280;25019;42.626;23.380;2023-06-22T09:40:27;94816.53;;;27.22;56.45
39301;BME280;25019;42.626;23.380;2023-06-22T09:42:53;94851.00;;;27.56;55.48
39301;BME280;25019;42.626;23.380;2023-06-22T09:45:18;94847.16;;;27.44;56.37
39301;BME280;25019;42.626;23.380;2023-06-22T09:47:44;94817.88;;;27.29;55.20
39301;BME280;25019;42.626;23.380;2023-06-22T09:50:10;94830.13;;;27.47;54.82
39301;BME280;25019;42.626;23.380;2023-06-22T09:52:35;94805.44;;;27.44;54.55
39301;BME280;25019;42.626;23.380;2023-06-22T09:55:01;94840.59;;;27.74;53.34
39301;BME280;25019;42.626;23.380;2023-06-22T09:57:29;94844.59;;;27.92;50.92
39301;BME280;25019;42.626;23.380;2023-06-22T09:59:55;94834.50;;;27.93;49.45
39301;BME280;25019;42.626;23.380;2023-06-22T10:02:21;94833.25;;;28.06;48.26
39301;BME280;25019;42.626;23.380;2023-06-22T10:04:47;94834.06;;;28.07;48.54
39301;BME280;25019;42.626;23.380;2023-06-22T10:07:13;94811.78;;;28.05;49.54
39301;BME280;25019;42.626;23.380;2023-06-22T10:09:38;94827.25;;;28.29;49.63
39301;BME280;25019;42.626;23.380;2023-06-22T10:12:04;94821.63;;;28.38;48.75
39301;BME280;25019;42.626;23.380;2023-06-22T10:14:30;94749.06;;;27.92;47.86
39301;BME280;25019;42.626;23.380;2023-06-22T10:16:56;94796.94;;;28.34;47.53
39301;BME280;25019;42.626;23.380;2023-06-22T10:19:22;94825.94;;;28.55;46.91
39301;BME280;25019;42.626;23.380;2023-06-22T10:21:47;94824.25;;;28.50;47.55
39301;BME280;25019;42.626;23.380;2023-06-22T10:24:13;94797.22;;;28.29;47.01
39301;BME280;25019;42.626;23.380;2023-06-22T10:26:38;94825.63;;;28.44;47.26
39301;BME280;25019;42.626;23.380;2023-06-22T10:29:04;94827.06;;;28.38;47.07
39301;BME280;25019;42.626;23.380;2023-06-22T10:31:30;94738.44;;;27.87;47.50
39301;BME280;25019;42.626;23.380;2023-06-22T10:33:56;94810.44;;;28.43;47.78
39301;BME280;25019;42.626;23.380;2023-06-22T10:36:22;94812.97;;;28.52;46.94
39301;BME280;25019;42.626;23.380;2023-06-22T10:38:48;94823.34;;;28.62;47.63
39301;BME280;25019;42.626;23.380;2023-06-22T10:41:14;94777.75;;;28.31;45.74
39301;BME280;25019;42.626;23.380;2023-06-22T10:43:40;94765.22;;;28.30;46.34
39301;BME280;25019;42.626;23.380;2023-06-22T10:46:06;94773.03;;;28.47;46.79
39301;BME280;25019;42.626;23.380;2023-06-22T10:48:32;94794.25;;;28.86;47.00
39301;BME280;25019;42.626;23.380;2023-06-22T10:50:58;94755.59;;;28.68;48.37
39301;BME280;25019;42.626;23.380;2023-06-22T10:53:24;94790.47;;;28.91;47.94
39301;BME280;25019;42.626;23.380;2023-06-22T10:55:49;94799.50;;;29.11;46.59
39301;BME280;25019;42.626;23.380;2023-06-22T10:58:18;94796.31;;;29.28;47.11
39301;BME280;25019;42.626;23.380;2023-06-22T11:00:44;94799.75;;;29.41;46.08
39301;BME280;25019;42.626;23.380;2023-06-22T11:03:09;94800.75;;;29.53;44.90
39301;BME280;25019;42.626;23.380;2023-06-22T11:05:35;94795.91;;;29.66;45.90
39301;BME280;25019;42.626;23.380;2023-06-22T11:08:01;94789.94;;;29.80;46.59
39301;BME280;25019;42.626;23.380;2023-06-22T11:10:26;94795.50;;;29.87;45.17
39301;BME280;25019;42.626;23.380;2023-06-22T11:12:52;94797.09;;;29.88;45.25
39301;BME280;25019;42.626;23.380;2023-06-22T11:15:18;94736.75;;;29.57;45.25
39301;BME280;25019;42.626;23.380;2023-06-22T11:17:44;94752.47;;;29.64;45.35
39301;BME280;25019;42.626;23.380;2023-06-22T11:20:11;94789.41;;;29.94;43.93
39301;BME280;25019;42.626;23.380;2023-06-22T11:22:40;94782.25;;;30.09;45.34
39301;BME280;25019;42.626;23.380;2023-06-22T11:25:07;94789.91;;;30.23;44.66
39301;BME280;25019;42.626;23.380;2023-06-22T11:27:33;94775.72;;;30.17;43.36
39301;BME280;25019;42.626;23.380;2023-06-22T11:29:59;94784.66;;;30.14;43.18
39301;BME280;25019;42.626;23.380;2023-06-22T11:32:24;94777.44;;;30.25;44.60
39301;BME280;25019;42.626;23.380;2023-06-22T11:34:50;94763.84;;;30.32;43.12
39301;BME280;25019;42.626;23.380;2023-06-22T11:37:16;94772.59;;;30.65;43.30
39301;BME280;25019;42.626;23.380;2023-06-22T11:39:42;94770.53;;;30.85;42.84
39301;BME280;25019;42.626;23.380;2023-06-22T11:42:11;94767.78;;;30.85;42.19
39301;BME280;25019;42.626;23.380;2023-06-22T11:44:37;94717.88;;;30.45;42.53
39301;BME280;25019;42.626;23.380;2023-06-22T11:47:03;94716.13;;;30.33;43.06
39301;BME280;25019;42.626;23.380;2023-06-22T11:49:32;94763.09;;;30.59;40.93
39301;BME280;25019;42.626;23.380;2023-06-22T11:51:58;94755.41;;;30.68;40.97
39301;BME280;25019;42.626;23.380;2023-06-22T11:54:24;94704.78;;;30.35;40.07
39301;BME280;25019;42.626;23.380;2023-06-22T11:56:49;94660.63;;;30.37;39.72
39301;BME280;25019;42.626;23.380;2023-06-22T11:59:15;94750.72;;;31.26;38.63
39301;BME280;25019;42.626;23.380;2023-06-22T12:01:40;94739.75;;;31.64;39.15
39301;BME280;25019;42.626;23.380;2023-06-22T12:04:06;94750.03;;;31.71;40.12
39301;BME280;25019;42.626;23.380;2023-06-22T12:06:32;94754.47;;;31.79;38.72
39301;BME280;25019;42.626;23.380;2023-06-22T12:08:58;94742.06;;;31.58;38.63
39301;BME280;25019;42.626;23.380;2023-06-22T12:11:24;94749.19;;;31.66;40.56
39301;BME280;25019;42.626;23.380;2023-06-22T12:13:50;94735.34;;;31.56;39.81
39301;BME280;25019;42.626;23.380;2023-06-22T12:16:15;94752.84;;;31.40;40.32
39301;BME280;25019;42.626;23.380;2023-06-22T12:18:41;94755.06;;;31.00;39.50
39301;BME280;25019;42.626;23.380;2023-06-22T12:21:07;94742.41;;;30.61;39.34
39301;BME280;25019;42.626;23.380;2023-06-22T12:23:33;94777.50;;;30.06;42.60
39301;BME280;25019;42.626;23.380;2023-06-22T12:25:58;94777.84;;;28.86;49.43
39301;BME280;25019;42.626;23.380;2023-06-22T12:28:25;94779.56;;;28.10;52.18
39301;BME280;25019;42.626;23.380;2023-06-22T12:30:51;94760.16;;;27.39;54.97
39301;BME280;25019;42.626;23.380;2023-06-22T12:33:16;94786.81;;;27.17;57.17
39301;BME280;25019;42.626;23.380;2023-06-22T12:35:42;94716.56;;;26.32;59.52
39301;BME280;25019;42.626;23.380;2023-06-22T12:38:07;94791.19;;;26.44;60.72
39301;BME280;25019;42.626;23.380;2023-06-22T12:40:34;94796.91;;;25.93;62.64
39301;BME280;25019;42.626;23.380;2023-06-22T12:43:00;94797.19;;;25.24;67.66
39301;BME280;25019;42.626;23.380;2023-06-22T12:45:27;94825.00;;;24.78;70.75
39301;BME280;25019;42.626;23.380;2023-06-22T12:47:57;94835.06;;;23.83;80.71
39301;BME280;25019;42.626;23.380;2023-06-22T12:50:22;94775.97;;;22.70;94.19
39301;BME280;25019;42.626;23.380;2023-06-22T12:52:48;94833.91;;;22.69;100.00
39301;BME280;25019;42.626;23.380;2023-06-22T12:55:14;94840.06;;;22.43;100.00
39301;BME280;25019;42.626;23.380;2023-06-22T12:57:39;94835.38;;;22.04;100.00